sensor_id;sensor_type;location;lat;lon;timestamp;temperature;humidity
5059;DHT22;2548;52.050;11.036;2023-11-18T00:00:16;4.10;99.90
5059;DHT22;2548;52.050;11.036;2023-11-18T00:02:46;4.00;99.90
5059;DHT22;2548;52.050;11.036;2023-11-18T00:05:23;4.00;99.90
5059;DHT22;2548;52.050;11.036;2023-11-18T00:07:54;3.90;99.90
5059;DHT22;2548;52.050;11.036;2023-11-18T00:10:26;3.80;99.90
5059;DHT22;2548;52.050;11.036;2023-11-18T00:12:55;3.80;99.90
5059;DHT22;2548;52.050;11.036;2023-11-18T00:15:39;3.70;99.90
5059;DHT22;2548;52.050;11.036;2023-11-18T00:18:14;3.70;99.90
5059;DHT22;2548;52.050;11.036;2023-11-18T00:20:45;3.60;99.90
5059;DHT22;2548;52.050;11.036;2023-11-18T00:23:16;3.50;99.90
5059;DHT22;2548;52.050;11.036;2023-11-18T00:25:48;3.50;99.90
5059;DHT22;2548;52.050;11.036;2023-11-18T00:28:23;3.40;99.90
5059;DHT22;2548;52.050;11.036;2023-11-18T00:30:52;3.30;99.90
5059;DHT22;2548;52.050;11.036;2023-11-18T00:33:35;3.20;99.90
5059;DHT22;2548;52.050;11.036;2023-11-18T00:36:08;3.20;99.90
5059;DHT22;2548;52.050;11.036;2023-11-18T00:38:42;3.10;99.90
5059;DHT22;2548;52.050;11.036;2023-11-18T00:41:17;3.10;99.90
5059;DHT22;2548;52.050;11.036;2023-11-18T00:43:45;3.10;99.90
5059;DHT22;2548;52.050;11.036;2023-11-18T00:46:16;3.10;99.90
5059;DHT22;2548;52.050;11.036;2023-11-18T00:48:50;3.10;99.90
5059;DHT22;2548;52.050;11.036;2023-11-18T00:51:26;3.10;99.90
5059;DHT22;2548;52.050;11.036;2023-11-18T00:53:55;3.10;99.90
5059;DHT22;2548;52.050;11.036;2023-11-18T00:56:34;3.00;99.90
5059;DHT22;2548;52.050;11.036;2023-11-18T00:59:05;3.00;99.90
5059;DHT22;2548;52.050;11.036;2023-11-18T01:01:34;2.90;99.90
5059;DHT22;2548;52.050;11.036;2023-11-18T01:04:15;2.80;99.90
5059;DHT22;2548;52.050;11.036;2023-11-18T01:06:45;2.70;99.90
5059;DHT22;2548;52.050;11.036;2023-11-18T01:09:13;2.70;99.90
5059;DHT22;2548;52.050;11.036;2023-11-18T01:11:49;2.70;99.90
5059;DHT22;2548;52.050;11.036;2023-11-18T01:14:35;2.60;99.90
5059;DHT22;2548;52.050;11.036;2023-11-18T01:17:06;2.60;99.90
5059;DHT22;2548;52.050;11.036;2023-11-18T01:19:37;2.60;99.90
5059;DHT22;2548;52.050;11.036;2023-11-18T01:22:05;2.50;99.90
5059;DHT22;2548;52.050;11.036;2023-11-18T01:24:33;2.50;99.90
5059;DHT22;2548;52.050;11.036;2023-11-18T01:27:16;2.40;99.90
5059;DHT22;2548;52.050;11.036;2023-11-18T01:29:45;2.40;99.90
5059;DHT22;2548;52.050;11.036;2023-11-18T01:32:17;2.30;99.90
5059;DHT22;2548;52.050;11.036;2023-11-18T01:34:45;2.20;99.90
5059;DHT22;2548;52.050;11.036;2023-11-18T01:37:22;2.10;99.90
5059;DHT22;2548;52.050;11.036;2023-11-18T01:39:53;2.00;99.90
5059;DHT22;2548;52.050;11.036;2023-11-18T01:42:33;1.90;99.90
5059;DHT22;2548;52.050;11.036;2023-11-18T01:45:07;1.80;99.90
5059;DHT22;2548;52.050;11.036;2023-11-18T01:47:48;1.80;99.90
5059;DHT22;2548;52.050;11.036;2023-11-18T01:50:20;1.70;99.90
5059;DHT22;2548;52.050;11.036;2023-11-18T01:52:48;1.70;99.90
5059;DHT22;2548;52.050;11.036;2023-11-18T01:55:25;1.60;99.90
5059;DHT22;2548;52.050;11.036;2023-11-18T01:57:54;1.60;99.90
5059;DHT22;2548;52.050;11.036;2023-11-18T02:00:29;1.60;99.90
5059;DHT22;2548;52.050;11.036;2023-11-18T02:02:58;1.60;99.90
5059;DHT22;2548;52.050;11.036;2023-11-18T02:05:25;1.60;99.90
5059;DHT22;2548;52.050;11.036;2023-11-18T02:07:56;1.60;99.90
5059;DHT22;2548;52.050;11.036;2023-11-18T02:10:26;1.60;99.90
5059;DHT22;2548;52.050;11.036;2023-11-18T02:13:00;1.60;99.90
5059;DHT22;2548;52.050;11.036;2023-11-18T02:15:35;1.70;99.90
5059;DHT22;2548;52.050;11.036;2023-11-18T02:18:09;1.80;99.90
5059;DHT22;2548;52.050;11.036;2023-11-18T02:20:40;1.80;99.90
5059;DHT22;2548;52.050;11.036;2023-11-18T02:23:08;1.80;99.90
5059;DHT22;2548;52.050;11.036;2023-11-18T02:25:46;1.90;99.90
5059;DHT22;2548;52.050;11.036;2023-11-18T02:28:17;2.00;99.90
5059;DHT22;2548;52.050;11.036;2023-11-18T02:30:46;2.10;99.90
5059;DHT22;2548;52.050;11.036;2023-11-18T02:33:19;2.10;99.90
5059;DHT22;2548;52.050;11.036;2023-11-18T02:35:54;2.20;99.90
5059;DHT22;2548;52.050;11.036;2023-11-18T02:38:29;2.30;99.90
5059;DHT22;2548;52.050;11.036;2023-11-18T02:41:02;2.30;99.90
5059;DHT22;2548;52.050;11.036;2023-11-18T02:43:39;2.30;99.90
5059;DHT22;2548;52.050;11.036;2023-11-18T02:46:08;2.40;99.90
5059;DHT22;2548;52.050;11.036;2023-11-18T02:48:52;2.40;99.90
5059;DHT22;2548;52.050;11.036;2023-11-18T02:51:27;2.40;99.90
5059;DHT22;2548;52.050;11.036;2023-11-18T02:53:55;2.50;99.90
5059;DHT22;2548;52.050;11.036;2023-11-18T02:56:24;2.50;99.90
5059;DHT22;2548;52.050;11.036;2023-11-18T02:58:52;2.50;99.90
5059;DHT22;2548;52.050;11.036;2023-11-18T03:01:22;2.60;99.90
5059;DHT22;2548;52.050;11.036;2023-11-18T03:03:54;2.60;99.90
5059;DHT22;2548;52.050;11.036;2023-11-18T03:06:25;2.60;99.90
5059;DHT22;2548;52.050;11.036;2023-11-18T03:08:56;2.60;99.90
5059;DHT22;2548;52.050;11.036;2023-11-18T03:11:25;2.70;99.90
5059;DHT22;2548;52.050;11.036;2023-11-18T03:13:55;2.70;99.90
5059;DHT22;2548;52.050;11.036;2023-11-18T03:16:22;2.80;99.90
5059;DHT22;2548;52.050;11.036;2023-11-18T03:18:51;2.80;99.90
5059;DHT22;2548;52.050;11.036;2023-11-18T03:21:27;2.90;99.90
5059;DHT22;2548;52.050;11.036;2023-11-18T03:26:39;2.90;99.90
5059;DHT22;2548;52.050;11.036;2023-11-18T03:29:09;2.90;99.90
5059;DHT22;2548;52.050;11.036;2023-11-18T03:31:39;2.90;99.90
5059;DHT22;2548;52.050;11.036;2023-11-18T03:34:19;2.90;99.90
5059;DHT22;2548;52.050;11.036;2023-11-18T03:36:53;2.90;99.90
5059;DHT22;2548;52.050;11.036;2023-11-18T03:39:26;2.90;99.90
5059;DHT22;2548;52.050;11.036;2023-11-18T03:41:58;2.90;99.90
5059;DHT22;2548;52.050;11.036;2023-11-18T03:44:26;2.90;99.90
5059;DHT22;2548;52.050;11.036;2023-11-18T03:47:03;2.90;99.90
5059;DHT22;2548;52.050;11.036;2023-11-18T03:49:33;2.90;99.90
5059;DHT22;2548;52.050;11.036;2023-11-18T03:52:08;2.90;99.90
5059;DHT22;2548;52.050;11.036;2023-11-18T03:54:42;2.90;99.90
5059;DHT22;2548;52.050;11.036;2023-11-18T03:57:15;2.80;99.90
5059;DHT22;2548;52.050;11.036;2023-11-18T03:59:45;2.90;99.90
5059;DHT22;2548;52.050;11.036;2023-11-18T04:02:16;2.80;99.90
5059;DHT22;2548;52.050;11.036;2023-11-18T04:04:43;2.90;99.90
5059;DHT22;2548;52.050;11.036;2023-11-18T04:07:13;2.80;99.90
5059;DHT22;2548;52.050;11.036;2023-11-18T04:09:41;2.80;99.90
5059;DHT22;2548;52.050;11.036;2023-11-18T04:12:09;2.80;99.90
5059;DHT22;2548;52.050;11.036;2023-11-18T04:14:47;2.80;99.90
5059;DHT22;2548;52.050;11.036;2023-11-18T04:17:17;2.80;99.90
5059;DHT22;2548;52.050;11.036;2023-11-18T04:19:54;2.80;99.90
5059;DHT22;2548;52.050;11.036;2023-11-18T04:22:22;2.70;99.90
5059;DHT22;2548;52.050;11.036;2023-11-18T04:24:49;2.60;99.90
5059;DHT22;2548;52.050;11.036;2023-11-18T04:27:17;2.60;99.90
5059;DHT22;2548;52.050;11.036;2023-11-18T04:29:48;2.50;99.90
5059;DHT22;2548;52.050;11.036;2023-11-18T04:32:21;2.50;99.90
5059;DHT22;2548;52.050;11.036;2023-11-18T04:34:48;2.40;99.90
5059;DHT22;2548;52.050;11.036;2023-11-18T04:37:17;2.40;99.90
5059;DHT22;2548;52.050;11.036;2023-11-18T04:39:44;2.30;99.90
5059;DHT22;2548;52.050;11.036;2023-11-18T04:42:18;2.30;99.90
5059;DHT22;2548;52.050;11.036;2023-11-18T04:44:53;2.20;99.90
5059;DHT22;2548;52.050;11.036;2023-11-18T04:47:23;2.30;99.90
5059;DHT22;2548;52.050;11.036;2023-11-18T04:49:51;2.30;99.90
5059;DHT22;2548;52.050;11.036;2023-11-18T04:52:22;2.20;99.90
5059;DHT22;2548;52.050;11.036;2023-11-18T04:54:55;2.20;99.90
5059;DHT22;2548;52.050;11.036;2023-11-18T04:57:22;2.10;99.90
5059;DHT22;2548;52.050;11.036;2023-11-18T04:59:54;2.00;99.90
5059;DHT22;2548;52.050;11.036;2023-11-18T05:02:28;1.90;99.90
5059;DHT22;2548;52.050;11.036;2023-11-18T05:04:56;1.90;99.90
5059;DHT22;2548;52.050;11.036;2023-11-18T05:07:26;1.90;99.90
5059;DHT22;2548;52.050;11.036;2023-11-18T05:09:55;1.90;99.90
5059;DHT22;2548;52.050;11.036;2023-11-18T05:12:22;1.90;99.90
5059;DHT22;2548;52.050;11.036;2023-11-18T05:14:57;1.90;99.90
5059;DHT22;2548;52.050;11.036;2023-11-18T05:17:27;1.90;99.90
5059;DHT22;2548;52.050;11.036;2023-11-18T05:20:08;1.80;99.90
5059;DHT22;2548;52.050;11.036;2023-11-18T05:22:45;1.80;99.90
5059;DHT22;2548;52.050;11.036;2023-11-18T05:25:19;1.80;99.90
5059;DHT22;2548;52.050;11.036;2023-11-18T05:27:49;1.80;99.90
5059;DHT22;2548;52.050;11.036;2023-11-18T05:30:22;1.80;99.90
5059;DHT22;2548;52.050;11.036;2023-11-18T05:32:56;1.70;99.90
5059;DHT22;2548;52.050;11.036;2023-11-18T05:35:30;1.70;99.90
5059;DHT22;2548;52.050;11.036;2023-11-18T05:37:57;1.70;99.90
5059;DHT22;2548;52.050;11.036;2023-11-18T05:40:29;1.70;99.90
5059;DHT22;2548;52.050;11.036;2023-11-18T05:42:56;1.70;99.90
5059;DHT22;2548;52.050;11.036;2023-11-18T05:45:28;1.80;99.90
5059;DHT22;2548;52.050;11.036;2023-11-18T05:47:58;1.70;99.90
5059;DHT22;2548;52.050;11.036;2023-11-18T05:50:25;1.70;99.90
5059;DHT22;2548;52.050;11.036;2023-11-18T05:52:54;1.70;99.90
5059;DHT22;2548;52.050;11.036;2023-11-18T05:55:22;1.70;99.90
5059;DHT22;2548;52.050;11.036;2023-11-18T05:57:52;1.70;99.90
5059;DHT22;2548;52.050;11.036;2023-11-18T06:00:19;1.60;99.90
5059;DHT22;2548;52.050;11.036;2023-11-18T06:02:48;1.60;99.90
5059;DHT22;2548;52.050;11.036;2023-11-18T06:05:19;1.60;99.90
5059;DHT22;2548;52.050;11.036;2023-11-18T06:07:56;1.70;99.90
5059;DHT22;2548;52.050;11.036;2023-11-18T06:10:31;1.70;99.90
5059;DHT22;2548;52.050;11.036;2023-11-18T06:13:01;1.60;99.90
5059;DHT22;2548;52.050;11.036;2023-11-18T06:15:30;1.60;99.90
5059;DHT22;2548;52.050;11.036;2023-11-18T06:18:00;1.50;99.90
5059;DHT22;2548;52.050;11.036;2023-11-18T06:20:27;1.50;99.90
5059;DHT22;2548;52.050;11.036;2023-11-18T06:22:58;1.50;99.90
5059;DHT22;2548;52.050;11.036;2023-11-18T06:25:25;1.70;99.90
5059;DHT22;2548;52.050;11.036;2023-11-18T06:27:56;1.80;99.90
5059;DHT22;2548;52.050;11.036;2023-11-18T06:30:26;1.80;99.90
5059;DHT22;2548;52.050;11.036;2023-11-18T06:32:54;1.70;99.90
5059;DHT22;2548;52.050;11.036;2023-11-18T06:35:28;1.60;99.90
5059;DHT22;2548;52.050;11.036;2023-11-18T06:37:56;1.50;99.90
5059;DHT22;2548;52.050;11.036;2023-11-18T06:40:30;1.40;99.90
5059;DHT22;2548;52.050;11.036;2023-11-18T06:42:59;1.40;99.90
5059;DHT22;2548;52.050;11.036;2023-11-18T06:45:31;1.40;99.90
5059;DHT22;2548;52.050;11.036;2023-11-18T06:47:58;1.40;99.90
5059;DHT22;2548;52.050;11.036;2023-11-18T06:50:30;1.40;99.90
5059;DHT22;2548;52.050;11.036;2023-11-18T06:52:58;1.40;99.90
5059;DHT22;2548;52.050;11.036;2023-11-18T06:55:25;1.60;99.90
5059;DHT22;2548;52.050;11.036;2023-11-18T06:57:53;1.70;99.90
5059;DHT22;2548;52.050;11.036;2023-11-18T07:00:21;1.80;99.90
5059;DHT22;2548;52.050;11.036;2023-11-18T07:02:54;1.90;99.90
5059;DHT22;2548;52.050;11.036;2023-11-18T07:05:25;2.00;99.90
5059;DHT22;2548;52.050;11.036;2023-11-18T07:07:53;2.00;99.90
5059;DHT22;2548;52.050;11.036;2023-11-18T07:10:21;2.10;99.90
5059;DHT22;2548;52.050;11.036;2023-11-18T07:12:48;2.10;99.90
5059;DHT22;2548;52.050;11.036;2023-11-18T07:15:18;2.10;99.90
5059;DHT22;2548;52.050;11.036;2023-11-18T07:17:54;2.20;99.90
5059;DHT22;2548;52.050;11.036;2023-11-18T07:20:24;2.20;99.90
5059;DHT22;2548;52.050;11.036;2023-11-18T07:22:53;2.20;99.90
5059;DHT22;2548;52.050;11.036;2023-11-18T07:25:27;2.20;99.90
5059;DHT22;2548;52.050;11.036;2023-11-18T07:27:54;2.20;99.90
5059;DHT22;2548;52.050;11.036;2023-11-18T07:30:26;2.20;99.90
5059;DHT22;2548;52.050;11.036;2023-11-18T07:32:53;2.30;99.90
5059;DHT22;2548;52.050;11.036;2023-11-18T07:35:22;2.40;99.90
5059;DHT22;2548;52.050;11.036;2023-11-18T07:37:49;2.40;99.90
5059;DHT22;2548;52.050;11.036;2023-11-18T07:40:27;2.50;99.90
5059;DHT22;2548;52.050;11.036;2023-11-18T07:42:55;2.50;99.90
5059;DHT22;2548;52.050;11.036;2023-11-18T07:45:23;2.50;99.90
5059;DHT22;2548;52.050;11.036;2023-11-18T07:47:50;2.60;99.90
5059;DHT22;2548;52.050;11.036;2023-11-18T07:50:18;2.50;99.90
5059;DHT22;2548;52.050;11.036;2023-11-18T07:52:47;2.60;99.90
5059;DHT22;2548;52.050;11.036;2023-11-18T07:55:17;2.60;99.90
5059;DHT22;2548;52.050;11.036;2023-11-18T07:57:46;2.70;99.90
5059;DHT22;2548;52.050;11.036;2023-11-18T08:00:20;2.80;99.90
5059;DHT22;2548;52.050;11.036;2023-11-18T08:02:50;2.90;99.90
5059;DHT22;2548;52.050;11.036;2023-11-18T08:05:20;2.90;99.90
5059;DHT22;2548;52.050;11.036;2023-11-18T08:07:49;2.90;99.90
5059;DHT22;2548;52.050;11.036;2023-11-18T08:10:17;3.00;99.90
5059;DHT22;2548;52.050;11.036;2023-11-18T08:12:47;3.00;99.90
5059;DHT22;2548;52.050;11.036;2023-11-18T08:15:14;3.10;99.90
5059;DHT22;2548;52.050;11.036;2023-11-18T08:17:42;3.20;99.90
5059;DHT22;2548;52.050;11.036;2023-11-18T08:20:10;3.30;99.90
5059;DHT22;2548;52.050;11.036;2023-11-18T08:22:40;3.40;99.90
5059;DHT22;2548;52.050;11.036;2023-11-18T08:25:10;3.60;99.90
5059;DHT22;2548;52.050;11.036;2023-11-18T08:27:39;3.80;99.90
5059;DHT22;2548;52.050;11.036;2023-11-18T08:30:12;3.90;99.90
5059;DHT22;2548;52.050;11.036;2023-11-18T08:32:42;4.10;99.90
5059;DHT22;2548;52.050;11.036;2023-11-18T08:35:11;4.20;99.90
5059;DHT22;2548;52.050;11.036;2023-11-18T08:37:40;4.40;99.90
5059;DHT22;2548;52.050;11.036;2023-11-18T08:40:09;4.50;99.90
5059;DHT22;2548;52.050;11.036;2023-11-18T08:42:42;4.60;99.90
5059;DHT22;2548;52.050;11.036;2023-11-18T08:45:19;4.70;99.90
5059;DHT22;2548;52.050;11.036;2023-11-18T08:47:48;4.80;99.90
5059;DHT22;2548;52.050;11.036;2023-11-18T08:50:18;4.80;99.90
5059;DHT22;2548;52.050;11.036;2023-11-18T08:52:50;4.90;99.90
5059;DHT22;2548;52.050;11.036;2023-11-18T08:55:23;4.90;99.90
5059;DHT22;2548;52.050;11.036;2023-11-18T08:58:05;5.00;99.90
5059;DHT22;2548;52.050;11.036;2023-11-18T09:00:46;5.00;99.90
5059;DHT22;2548;52.050;11.036;2023-11-18T09:03:17;5.10;99.90
5059;DHT22;2548;52.050;11.036;2023-11-18T09:05:51;5.10;99.90
5059;DHT22;2548;52.050;11.036;2023-11-18T09:08:26;5.10;99.90
5059;DHT22;2548;52.050;11.036;2023-11-18T09:10:55;5.20;99.90
5059;DHT22;2548;52.050;11.036;2023-11-18T09:13:27;5.30;99.90
5059;DHT22;2548;52.050;11.036;2023-11-18T09:16:12;5.30;99.90
5059;DHT22;2548;52.050;11.036;2023-11-18T09:18:45;5.40;99.90
5059;DHT22;2548;52.050;11.036;2023-11-18T09:21:24;5.40;99.90
5059;DHT22;2548;52.050;11.036;2023-11-18T09:23:55;5.50;99.90
5059;DHT22;2548;52.050;11.036;2023-11-18T09:26:35;5.50;99.90
5059;DHT22;2548;52.050;11.036;2023-11-18T09:29:08;5.50;99.90
5059;DHT22;2548;52.050;11.036;2023-11-18T09:31:38;5.50;99.90
5059;DHT22;2548;52.050;11.036;2023-11-18T09:34:08;5.50;99.90
5059;DHT22;2548;52.050;11.036;2023-11-18T09:36:41;5.50;99.90
5059;DHT22;2548;52.050;11.036;2023-11-18T09:39:20;5.70;99.90
5059;DHT22;2548;52.050;11.036;2023-11-18T09:42:07;5.80;99.90
5059;DHT22;2548;52.050;11.036;2023-11-18T09:44:49;5.90;99.90
5059;DHT22;2548;52.050;11.036;2023-11-18T09:47:21;6.00;99.90
5059;DHT22;2548;52.050;11.036;2023-11-18T09:49:54;6.10;99.90
5059;DHT22;2548;52.050;11.036;2023-11-18T09:52:29;6.20;99.90
5059;DHT22;2548;52.050;11.036;2023-11-18T09:55:03;6.20;99.90
5059;DHT22;2548;52.050;11.036;2023-11-18T09:57:32;6.30;99.90
5059;DHT22;2548;52.050;11.036;2023-11-18T10:00:04;6.30;99.90
5059;DHT22;2548;52.050;11.036;2023-11-18T10:02:53;6.40;99.90
5059;DHT22;2548;52.050;11.036;2023-11-18T10:05:28;6.40;99.90
5059;DHT22;2548;52.050;11.036;2023-11-18T10:07:59;6.50;99.90
5059;DHT22;2548;52.050;11.036;2023-11-18T10:10:28;6.50;99.90
5059;DHT22;2548;52.050;11.036;2023-11-18T10:13:05;6.40;99.90
5059;DHT22;2548;52.050;11.036;2023-11-18T10:15:49;6.40;99.90
5059;DHT22;2548;52.050;11.036;2023-11-18T10:18:21;6.40;99.90
5059;DHT22;2548;52.050;11.036;2023-11-18T10:20:50;6.50;99.90
5059;DHT22;2548;52.050;11.036;2023-11-18T10:23:20;6.60;99.90
5059;DHT22;2548;52.050;11.036;2023-11-18T10:25:49;6.80;99.90
5059;DHT22;2548;52.050;11.036;2023-11-18T10:28:23;6.90;99.90
5059;DHT22;2548;52.050;11.036;2023-11-18T10:30:50;6.90;99.90
5059;DHT22;2548;52.050;11.036;2023-11-18T10:33:20;7.00;99.90
5059;DHT22;2548;52.050;11.036;2023-11-18T10:35:51;7.00;99.90
5059;DHT22;2548;52.050;11.036;2023-11-18T10:38:22;7.00;99.90
5059;DHT22;2548;52.050;11.036;2023-11-18T10:41:03;7.10;99.90
5059;DHT22;2548;52.050;11.036;2023-11-18T10:43:31;7.20;99.90
5059;DHT22;2548;52.050;11.036;2023-11-18T10:46:06;7.20;99.90
5059;DHT22;2548;52.050;11.036;2023-11-18T10:48:43;7.30;99.90
5059;DHT22;2548;52.050;11.036;2023-11-18T10:51:17;7.30;99.90
5059;DHT22;2548;52.050;11.036;2023-11-18T10:53:47;7.40;99.90
5059;DHT22;2548;52.050;11.036;2023-11-18T10:56:24;7.40;99.90
5059;DHT22;2548;52.050;11.036;2023-11-18T10:58:55;7.50;99.90
5059;DHT22;2548;52.050;11.036;2023-11-18T11:01:30;7.50;99.90
5059;DHT22;2548;52.050;11.036;2023-11-18T11:04:00;7.60;99.90
5059;DHT22;2548;52.050;11.036;2023-11-18T11:06:32;7.60;99.90
5059;DHT22;2548;52.050;11.036;2023-11-18T11:09:00;7.60;99.90
5059;DHT22;2548;52.050;11.036;2023-11-18T11:11:48;7.80;99.90
5059;DHT22;2548;52.050;11.036;2023-11-18T11:14:20;7.90;99.90
5059;DHT22;2548;52.050;11.036;2023-11-18T11:16:53;8.00;99.90
5059;DHT22;2548;52.050;11.036;2023-11-18T11:19:26;8.10;99.90
5059;DHT22;2548;52.050;11.036;2023-11-18T11:22:03;8.20;99.90
5059;DHT22;2548;52.050;11.036;2023-11-18T11:24:45;8.20;99.90
5059;DHT22;2548;52.050;11.036;2023-11-18T11:27:22;8.20;99.90
5059;DHT22;2548;52.050;11.036;2023-11-18T11:30:01;8.20;99.90
5059;DHT22;2548;52.050;11.036;2023-11-18T11:32:42;8.10;99.90
5059;DHT22;2548;52.050;11.036;2023-11-18T11:35:19;8.10;99.90
5059;DHT22;2548;52.050;11.036;2023-11-18T11:37:52;8.10;99.90
5059;DHT22;2548;52.050;11.036;2023-11-18T11:40:24;8.10;99.90
5059;DHT22;2548;52.050;11.036;2023-11-18T11:42:56;8.10;99.90
5059;DHT22;2548;52.050;11.036;2023-11-18T11:45:31;8.00;99.90
5059;DHT22;2548;52.050;11.036;2023-11-18T11:48:06;8.10;99.90
5059;DHT22;2548;52.050;11.036;2023-11-18T11:51:03;8.10;99.90
5059;DHT22;2548;52.050;11.036;2023-11-18T11:53:35;8.10;99.90
5059;DHT22;2548;52.050;11.036;2023-11-18T11:56:06;8.10;99.90
5059;DHT22;2548;52.050;11.036;2023-11-18T11:58:38;8.10;99.90
5059;DHT22;2548;52.050;11.036;2023-11-18T12:01:16;8.20;99.90
5059;DHT22;2548;52.050;11.036;2023-11-18T12:03:48;8.20;99.90
5059;DHT22;2548;52.050;11.036;2023-11-18T12:06:20;8.20;99.90
5059;DHT22;2548;52.050;11.036;2023-11-18T12:08:51;8.20;99.90
5059;DHT22;2548;52.050;11.036;2023-11-18T12:11:25;8.20;99.90
5059;DHT22;2548;52.050;11.036;2023-11-18T12:14:02;8.10;99.90
5059;DHT22;2548;52.050;11.036;2023-11-18T12:16:58;8.00;99.90
5059;DHT22;2548;52.050;11.036;2023-11-18T12:19:30;8.00;99.90
5059;DHT22;2548;52.050;11.036;2023-11-18T12:22:10;7.90;99.90
5059;DHT22;2548;52.050;11.036;2023-11-18T12:24:45;7.80;99.90
5059;DHT22;2548;52.050;11.036;2023-11-18T12:27:41;7.80;99.90
5059;DHT22;2548;52.050;11.036;2023-11-18T12:30:45;7.70;99.90
5059;DHT22;2548;52.050;11.036;2023-11-18T12:34:02;7.70;99.90
5059;DHT22;2548;52.050;11.036;2023-11-18T12:40:17;7.60;99.90
5059;DHT22;2548;52.050;11.036;2023-11-18T12:43:00;7.60;99.90
5059;DHT22;2548;52.050;11.036;2023-11-18T12:48:57;7.50;99.90
5059;DHT22;2548;52.050;11.036;2023-11-18T12:51:26;7.60;99.90
5059;DHT22;2548;52.050;11.036;2023-11-18T12:53:54;7.50;99.90
5059;DHT22;2548;52.050;11.036;2023-11-18T12:56:22;7.50;99.90
5059;DHT22;2548;52.050;11.036;2023-11-18T12:58:59;7.50;99.90
5059;DHT22;2548;52.050;11.036;2023-11-18T13:01:26;7.40;99.90
5059;DHT22;2548;52.050;11.036;2023-11-18T13:03:54;7.30;99.90
5059;DHT22;2548;52.050;11.036;2023-11-18T13:06:21;7.30;99.90
5059;DHT22;2548;52.050;11.036;2023-11-18T13:08:57;7.30;99.90
5059;DHT22;2548;52.050;11.036;2023-11-18T13:11:29;7.30;99.90
5059;DHT22;2548;52.050;11.036;2023-11-18T13:14:00;7.30;99.90
5059;DHT22;2548;52.050;11.036;2023-11-18T13:16:27;7.20;99.90
5059;DHT22;2548;52.050;11.036;2023-11-18T13:18:57;7.20;99.90
5059;DHT22;2548;52.050;11.036;2023-11-18T13:21:28;7.10;99.90
5059;DHT22;2548;52.050;11.036;2023-11-18T13:23:57;7.10;99.90
5059;DHT22;2548;52.050;11.036;2023-11-18T13:26:28;7.10;99.90
5059;DHT22;2548;52.050;11.036;2023-11-18T13:28:57;7.10;99.90
5059;DHT22;2548;52.050;11.036;2023-11-18T13:31:25;7.10;99.90
5059;DHT22;2548;52.050;11.036;2023-11-18T13:33:55;7.00;99.90
5059;DHT22;2548;52.050;11.036;2023-11-18T13:36:26;7.00;99.90
5059;DHT22;2548;52.050;11.036;2023-11-18T13:39:00;7.00;99.90
5059;DHT22;2548;52.050;11.036;2023-11-18T13:41:31;7.00;99.90
5059;DHT22;2548;52.050;11.036;2023-11-18T13:44:00;7.00;99.90
5059;DHT22;2548;52.050;11.036;2023-11-18T13:46:29;6.90;99.90
5059;DHT22;2548;52.050;11.036;2023-11-18T13:48:57;6.90;99.90
5059;DHT22;2548;52.050;11.036;2023-11-18T13:51:25;6.90;99.90
5059;DHT22;2548;52.050;11.036;2023-11-18T13:53:52;6.90;99.90
5059;DHT22;2548;52.050;11.036;2023-11-18T13:56:22;6.80;99.90
5059;DHT22;2548;52.050;11.036;2023-11-18T13:58:54;6.80;99.90
5059;DHT22;2548;52.050;11.036;2023-11-18T14:01:25;6.70;99.90
5059;DHT22;2548;52.050;11.036;2023-11-18T14:03:54;6.70;99.90
5059;DHT22;2548;52.050;11.036;2023-11-18T14:06:27;6.70;99.90
5059;DHT22;2548;52.050;11.036;2023-11-18T14:09:00;6.70;99.90
5059;DHT22;2548;52.050;11.036;2023-11-18T14:11:29;6.60;99.90
5059;DHT22;2548;52.050;11.036;2023-11-18T14:13:59;6.60;99.90
5059;DHT22;2548;52.050;11.036;2023-11-18T14:16:27;6.60;99.90
5059;DHT22;2548;52.050;11.036;2023-11-18T14:18:54;6.50;99.90
5059;DHT22;2548;52.050;11.036;2023-11-18T14:21:22;6.50;99.90
5059;DHT22;2548;52.050;11.036;2023-11-18T14:23:49;6.40;99.90
5059;DHT22;2548;52.050;11.036;2023-11-18T14:26:23;6.40;99.90
5059;DHT22;2548;52.050;11.036;2023-11-18T14:28:50;6.30;99.90
5059;DHT22;2548;52.050;11.036;2023-11-18T14:31:20;6.30;99.90
5059;DHT22;2548;52.050;11.036;2023-11-18T14:33:48;6.20;99.90
5059;DHT22;2548;52.050;11.036;2023-11-18T14:36:15;6.20;99.90
5059;DHT22;2548;52.050;11.036;2023-11-18T14:38:43;6.20;99.90
5059;DHT22;2548;52.050;11.036;2023-11-18T14:41:11;6.20;99.90
5059;DHT22;2548;52.050;11.036;2023-11-18T14:43:38;6.20;99.90
5059;DHT22;2548;52.050;11.036;2023-11-18T14:46:07;6.20;99.90
5059;DHT22;2548;52.050;11.036;2023-11-18T14:48:36;6.10;99.90
5059;DHT22;2548;52.050;11.036;2023-11-18T14:51:07;6.10;99.90
5059;DHT22;2548;52.050;11.036;2023-11-18T14:53:35;6.10;99.90
5059;DHT22;2548;52.050;11.036;2023-11-18T14:56:08;6.10;99.90
5059;DHT22;2548;52.050;11.036;2023-11-18T14:58:39;6.10;99.90
5059;DHT22;2548;52.050;11.036;2023-11-18T15:01:06;6.00;99.90
5059;DHT22;2548;52.050;11.036;2023-11-18T15:03:34;6.00;99.90
5059;DHT22;2548;52.050;11.036;2023-11-18T15:06:06;6.00;99.90
5059;DHT22;2548;52.050;11.036;2023-11-18T15:08:45;6.00;99.90
5059;DHT22;2548;52.050;11.036;2023-11-18T15:11:12;6.00;99.90
5059;DHT22;2548;52.050;11.036;2023-11-18T15:13:41;6.00;99.90
5059;DHT22;2548;52.050;11.036;2023-11-18T15:16:08;6.00;99.90
5059;DHT22;2548;52.050;11.036;2023-11-18T15:18:39;5.90;99.90
5059;DHT22;2548;52.050;11.036;2023-11-18T15:21:13;5.90;99.90
5059;DHT22;2548;52.050;11.036;2023-11-18T15:23:41;5.90;99.90
5059;DHT22;2548;52.050;11.036;2023-11-18T15:26:11;5.90;99.90
5059;DHT22;2548;52.050;11.036;2023-11-18T15:28:39;5.90;99.90
5059;DHT22;2548;52.050;11.036;2023-11-18T15:31:07;5.90;99.90
5059;DHT22;2548;52.050;11.036;2023-11-18T15:33:40;5.90;99.90
5059;DHT22;2548;52.050;11.036;2023-11-18T15:36:15;5.90;99.90
5059;DHT22;2548;52.050;11.036;2023-11-18T15:38:43;5.90;99.90
5059;DHT22;2548;52.050;11.036;2023-11-18T15:41:24;5.90;99.90
5059;DHT22;2548;52.050;11.036;2023-11-18T15:43:51;5.80;99.90
5059;DHT22;2548;52.050;11.036;2023-11-18T15:46:19;5.80;99.90
5059;DHT22;2548;52.050;11.036;2023-11-18T15:48:46;5.80;99.90
5059;DHT22;2548;52.050;11.036;2023-11-18T15:51:18;5.80;99.90
5059;DHT22;2548;52.050;11.036;2023-11-18T15:53:47;5.70;99.90
5059;DHT22;2548;52.050;11.036;2023-11-18T15:56:15;5.70;99.90
5059;DHT22;2548;52.050;11.036;2023-11-18T15:58:52;5.70;99.90
5059;DHT22;2548;52.050;11.036;2023-11-18T16:01:19;5.70;99.90
5059;DHT22;2548;52.050;11.036;2023-11-18T16:03:47;5.70;99.90
5059;DHT22;2548;52.050;11.036;2023-11-18T16:06:17;5.70;99.90
5059;DHT22;2548;52.050;11.036;2023-11-18T16:08:45;5.70;99.90
5059;DHT22;2548;52.050;11.036;2023-11-18T16:11:15;5.70;99.90
5059;DHT22;2548;52.050;11.036;2023-11-18T16:13:44;5.70;99.90
5059;DHT22;2548;52.050;11.036;2023-11-18T16:16:12;5.60;99.90
5059;DHT22;2548;52.050;11.036;2023-11-18T16:18:43;5.60;99.90
5059;DHT22;2548;52.050;11.036;2023-11-18T16:21:11;5.70;99.90
5059;DHT22;2548;52.050;11.036;2023-11-18T16:23:42;5.70;99.90
5059;DHT22;2548;52.050;11.036;2023-11-18T16:26:09;5.70;99.90
5059;DHT22;2548;52.050;11.036;2023-11-18T16:28:37;5.70;99.90
5059;DHT22;2548;52.050;11.036;2023-11-18T16:31:12;5.70;99.90
5059;DHT22;2548;52.050;11.036;2023-11-18T16:33:39;5.70;99.90
5059;DHT22;2548;52.050;11.036;2023-11-18T16:36:21;5.70;99.90
5059;DHT22;2548;52.050;11.036;2023-11-18T16:38:50;5.70;99.90
5059;DHT22;2548;52.050;11.036;2023-11-18T16:41:18;5.70;99.90